Time;durP1;ratioP1;P1;durP2;ratioP2;P2;SDS_P1;SDS_P2;PMS_P1;PMS_P2;Temp;Humidity;BMP_temperature;BMP_pressure;BME280_temperature;BME280_humidity;BME280_pressure;Samples;Min_cycle;Max_cycle;Signal;HPM_P1;HPM_P2
2021/07/23 00:01:43;;;;;;;;;;;;;;;23.47;43.38;102185.44;4945038;29;20364;-90
2021/07/23 00:04:11;;;;;;;;;;;;;;;23.62;43.47;102184.16;4962512;29;19915;-90
2021/07/23 00:06:36;;;;;;;;;;;;;;;23.78;43.11;102185.66;4945877;29;19936;-86
2021/07/23 00:09:01;;;;;;;;;;;;;;;23.74;43.23;102179.53;4945748;29;19929;-91
2021/07/23 00:11:41;;;;;;;;;;;;;;;23.90;42.41;102170.88;4945298;29;20020;-91
2021/07/23 00:14:06;;;;;;;;;;;;;;;23.59;43.14;102178.91;4944618;29;20316;-87
2021/07/23 00:16:32;;;;;;;;;;;;;;;23.80;42.63;102175.38;4946773;29;19956;-92
2021/07/23 00:18:57;;;;;;;;;;;;;;;23.86;42.71;102172.13;4949334;29;20387;-90
2021/07/23 00:21:22;;;;;;;;;;;;;;;23.70;42.90;102178.00;4948775;29;20380;-90
2021/07/23 00:23:48;;;;;;;;;;;;;;;23.83;42.60;102172.34;4948322;29;19918;-87
2021/07/23 00:26:13;;;;;;;;;;;;;;;23.76;43.23;102179.38;4948263;29;19941;-90
2021/07/23 00:28:39;;;;;;;;;;;;;;;23.69;43.24;102173.50;4948535;29;19922;-87
2021/07/23 00:31:04;;;;;;;;;;;;;;;23.68;43.16;102171.75;4948088;29;20435;-90
2021/07/23 00:33:30;;;;;;;;;;;;;;;23.38;43.89;102177.91;4949234;29;19919;-90
2021/07/23 00:35:55;;;;;;;;;;;;;;;23.67;43.15;102179.16;4965912;29;19918;-91
2021/07/23 00:38:21;;;;;;;;;;;;;;;23.61;43.25;102185.19;4933142;29;19950;-93
2021/07/23 00:40:46;;;;;;;;;;;;;;;23.54;43.62;102190.31;4965999;29;19946;-90
2021/07/23 00:43:12;;;;;;;;;;;;;;;23.64;43.04;102181.28;4948950;29;19981;-92
2021/07/23 00:45:37;;;;;;;;;;;;;;;23.79;42.80;102185.53;4978519;29;20376;-87
2021/07/23 00:48:04;;;;;;;;;;;;;;;23.78;42.99;102182.91;4963141;29;20257;-90
2021/07/23 00:50:34;;;;;;;;;;;;;;;23.68;43.39;102188.31;4976677;29;19923;-90
2021/07/23 00:52:59;;;;;;;;;;;;;;;23.66;43.34;102185.69;4953388;29;19925;-91
2021/07/23 00:55:25;;;;;;;;;;;;;;;23.76;43.15;102185.78;4949048;29;19920;-89
2021/07/23 00:57:51;;;;;;;;;;;;;;;23.68;43.23;102182.78;4950550;29;20010;-91
2021/07/23 01:00:17;;;;;;;;;;;;;;;23.30;44.30;102182.16;4966338;29;19957;-88
2021/07/23 01:02:42;;;;;;;;;;;;;;;23.23;44.21;102183.63;4949098;29;19922;-86
2021/07/23 01:05:08;;;;;;;;;;;;;;;23.65;43.63;102192.19;4965329;29;20271;-92
2021/07/23 01:07:34;;;;;;;;;;;;;;;23.56;43.34;102181.91;4948725;29;19930;-91
2021/07/23 01:10:00;;;;;;;;;;;;;;;23.67;43.43;102187.44;4949175;29;19923;-91
2021/07/23 01:12:26;;;;;;;;;;;;;;;23.30;44.06;102175.75;4947801;29;19918;-89
2021/07/23 01:14:51;;;;;;;;;;;;;;;23.62;43.56;102177.78;4947204;29;20587;-89
2021/07/23 01:17:16;;;;;;;;;;;;;;;23.46;43.66;102183.66;4947074;29;19918;-90
2021/07/23 01:20:02;;;;;;;;;;;;;;;23.50;43.96;102187.94;4946950;29;20032;-87
2021/07/23 01:22:28;;;;;;;;;;;;;;;23.51;43.72;102170.38;4946942;29;19926;-93
2021/07/23 01:24:53;;;;;;;;;;;;;;;23.58;43.56;102176.25;4949896;29;19914;-88
2021/07/23 01:27:19;;;;;;;;;;;;;;;23.45;43.60;102173.63;4950988;29;20005;-90
2021/07/23 01:29:46;;;;;;;;;;;;;;;23.10;44.56;102177.34;4973377;29;20363;-92
2021/07/23 01:32:11;;;;;;;;;;;;;;;22.89;45.04;102174.38;4961209;29;19974;-85
2021/07/23 01:34:38;;;;;;;;;;;;;;;22.71;45.41;102176.72;4961924;29;20013;-89
2021/07/23 01:37:03;;;;;;;;;;;;;;;22.96;44.93;102176.56;4962222;28;19954;-89
2021/07/23 01:39:28;;;;;;;;;;;;;;;23.10;44.03;102177.34;4962403;29;19911;-90
2021/07/23 01:41:54;;;;;;;;;;;;;;;23.18;44.25;102174.84;4962686;29;19968;-84
2021/07/23 01:44:19;;;;;;;;;;;;;;;22.70;45.70;102188.75;4962589;29;19973;-88
2021/07/23 01:46:44;;;;;;;;;;;;;;;22.93;44.92;102176.78;4963339;29;19919;-87
2021/07/23 01:49:11;;;;;;;;;;;;;;;22.63;45.65;102180.94;4961125;29;19930;-89
2021/07/23 01:51:38;;;;;;;;;;;;;;;22.78;45.35;102175.22;4956073;29;19949;-90
2021/07/23 01:54:03;;;;;;;;;;;;;;;22.96;44.58;102178.41;4958259;29;19950;-89
2021/07/23 01:56:28;;;;;;;;;;;;;;;22.87;44.91;102177.25;4937658;29;19928;-90
2021/07/23 01:58:54;;;;;;;;;;;;;;;22.80;45.13;102178.75;4951727;29;20307;-92
2021/07/23 02:01:19;;;;;;;;;;;;;;;22.98;44.61;102176.44;4951812;29;19922;-88
2021/07/23 02:03:44;;;;;;;;;;;;;;;22.92;44.89;102175.03;4951227;29;19919;-91
2021/07/23 02:06:10;;;;;;;;;;;;;;;22.61;45.31;102166.38;4950224;29;19926;-91
2021/07/23 02:08:35;;;;;;;;;;;;;;;22.84;45.11;102169.22;4949963;29;19926;-91
2021/07/23 02:11:01;;;;;;;;;;;;;;;22.81;45.38;102173.13;4933245;29;19923;-91
2021/07/23 02:13:26;;;;;;;;;;;;;;;22.44;46.21;102170.47;4947568;29;19929;-89
2021/07/23 02:15:52;;;;;;;;;;;;;;;22.89;45.17;102169.75;4964562;29;19922;-90
2021/07/23 02:18:17;;;;;;;;;;;;;;;23.07;44.36;102172.03;4946614;29;19919;-90
2021/07/23 02:20:42;;;;;;;;;;;;;;;23.31;43.78;102170.09;4947006;29;20283;-91
2021/07/23 02:23:08;;;;;;;;;;;;;;;23.03;44.31;102167.78;4947042;29;20380;-92
2021/07/23 02:25:33;;;;;;;;;;;;;;;23.23;44.10;102166.19;4947069;29;19915;-88
2021/07/23 02:27:58;;;;;;;;;;;;;;;22.96;44.38;102165.50;4947342;29;19957;-88
2021/07/23 02:30:23;;;;;;;;;;;;;;;23.11;44.55;102157.03;4947159;29;19926;-88
2021/07/23 02:32:49;;;;;;;;;;;;;;;23.09;44.19;102153.47;4947200;29;19981;-87
2021/07/23 02:35:14;;;;;;;;;;;;;;;22.94;44.30;102161.97;4946604;29;20029;-90
2021/07/23 02:37:40;;;;;;;;;;;;;;;22.98;44.40;102157.09;4946004;28;19923;-90
2021/07/23 02:40:06;;;;;;;;;;;;;;;22.91;44.54;102161.34;4946072;29;20375;-92
2021/07/23 02:42:31;;;;;;;;;;;;;;;22.90;44.38;102154.06;4946479;29;20372;-88
2021/07/23 02:44:57;;;;;;;;;;;;;;;22.89;44.55;102158.72;4946875;29;19922;-87
2021/07/23 02:47:22;;;;;;;;;;;;;;;22.63;45.04;102147.84;4947087;29;19919;-90
2021/07/23 02:49:48;;;;;;;;;;;;;;;22.59;44.90;102149.09;4946988;29;19918;-90
2021/07/23 02:52:14;;;;;;;;;;;;;;;21.69;47.50;102145.81;4946456;29;19918;-89
2021/07/23 02:54:39;;;;;;;;;;;;;;;22.07;46.75;102147.53;4945626;29;20013;-89
2021/07/23 02:57:04;;;;;;;;;;;;;;;22.71;45.06;102151.91;4961768;29;19914;-88
2021/07/23 02:59:30;;;;;;;;;;;;;;;22.33;46.24;102148.38;4944490;29;20357;-90
2021/07/23 03:01:55;;;;;;;;;;;;;;;22.53;45.36;102148.69;4945388;29;19966;-87
2021/07/23 03:04:20;;;;;;;;;;;;;;;22.44;46.17;102150.28;4946173;29;19938;-88
2021/07/23 03:06:45;;;;;;;;;;;;;;;22.42;46.44;102142.13;4945496;29;19923;-91
2021/07/23 03:09:11;;;;;;;;;;;;;;;22.33;46.48;102145.59;4945365;29;19921;-92
2021/07/23 03:11:36;;;;;;;;;;;;;;;22.36;46.48;102137.09;4945561;29;19934;-91
2021/07/23 03:14:01;;;;;;;;;;;;;;;22.55;45.94;102132.91;4945138;29;20372;-89
2021/07/23 03:16:27;;;;;;;;;;;;;;;21.92;47.91;102127.53;4945691;29;19918;-88
2021/07/23 03:18:52;;;;;;;;;;;;;;;22.20;46.97;102123.56;4961735;29;19933;-91
2021/07/23 03:21:21;;;;;;;;;;;;;;;22.30;46.48;102113.59;4945141;29;19926;-91
2021/07/23 03:23:46;;;;;;;;;;;;;;;22.71;45.49;102116.91;4945288;29;19931;-88
2021/07/23 03:26:12;;;;;;;;;;;;;;;22.57;45.99;102118.00;4945189;29;19992;-88
2021/07/23 03:28:37;;;;;;;;;;;;;;;22.62;45.79;102118.50;4944622;29;19918;-88
2021/07/23 03:31:02;;;;;;;;;;;;;;;22.85;45.04;102115.78;4944883;29;19918;-93
2021/07/23 03:33:27;;;;;;;;;;;;;;;23.10;44.27;102111.09;4944606;29;19953;-86
2021/07/23 03:35:53;;;;;;;;;;;;;;;23.04;44.62;102117.06;4944229;29;19942;-91
2021/07/23 03:38:19;;;;;;;;;;;;;;;23.04;44.74;102112.44;4961436;28;19930;-89
2021/07/23 03:40:44;;;;;;;;;;;;;;;22.60;45.68;102112.25;4943646;29;19919;-90
2021/07/23 03:43:10;;;;;;;;;;;;;;;22.47;46.45;102108.69;4943622;29;19934;-88
2021/07/23 03:45:35;;;;;;;;;;;;;;;22.87;45.63;102116.53;4961121;29;19974;-88
2021/07/23 03:48:01;;;;;;;;;;;;;;;22.71;46.03;102107.75;4960754;29;19962;-91
2021/07/23 03:50:26;;;;;;;;;;;;;;;22.83;45.51;102109.53;4943250;29;19922;-90
2021/07/23 03:52:51;;;;;;;;;;;;;;;23.04;45.26;102117.06;4960891;29;19977;-91
2021/07/23 03:55:16;;;;;;;;;;;;;;;22.82;46.18;102107.75;4943803;29;20325;-92
2021/07/23 03:57:42;;;;;;;;;;;;;;;23.07;45.48;102109.44;4944313;29;19926;-90
2021/07/23 04:00:08;;;;;;;;;;;;;;;23.28;45.18;102115.13;4944647;29;19919;-90
2021/07/23 04:02:35;;;;;;;;;;;;;;;23.46;44.87;102111.84;4945111;29;19918;-90
2021/07/23 04:05:00;;;;;;;;;;;;;;;23.33;45.30;102112.88;4928623;29;19922;-87
2021/07/23 04:07:25;;;;;;;;;;;;;;;23.56;44.74;102110.09;4946515;29;19919;-87
2021/07/23 04:09:51;;;;;;;;;;;;;;;23.33;45.25;102109.22;4960323;29;19919;-88
2021/07/23 04:12:16;;;;;;;;;;;;;;;23.68;44.68;102108.19;4962074;29;19906;-87
2021/07/23 04:14:41;;;;;;;;;;;;;;;23.55;44.62;102108.31;4956299;28;19931;-87
2021/07/23 04:17:06;;;;;;;;;;;;;;;23.76;44.30;102108.41;4951677;29;20399;-86
2021/07/23 04:19:32;;;;;;;;;;;;;;;23.94;43.62;102106.03;4969712;29;19930;-84
2021/07/23 04:21:57;;;;;;;;;;;;;;;24.04;43.16;102095.94;4945629;29;19919;-88
2021/07/23 04:24:23;;;;;;;;;;;;;;;24.22;43.33;102098.16;4945630;29;20222;-87
2021/07/23 04:26:49;;;;;;;;;;;;;;;24.18;42.99;102092.00;4945547;29;20321;-89
2021/07/23 04:29:14;;;;;;;;;;;;;;;24.30;42.97;102092.81;4944072;29;19918;-90
2021/07/23 04:31:41;;;;;;;;;;;;;;;24.04;43.79;102095.94;4944199;29;20378;-92
2021/07/23 04:34:06;;;;;;;;;;;;;;;23.89;43.83;102098.13;4945185;29;19918;-90
2021/07/23 04:36:35;;;;;;;;;;;;;;;24.31;43.02;102089.06;4960993;29;19950;-91
2021/07/23 04:39:03;;;;;;;;;;;;;;;24.48;42.87;102093.13;4942303;29;19922;-87
2021/07/23 04:41:28;;;;;;;;;;;;;;;24.46;43.02;102091.47;4942753;29;19918;-91
2021/07/23 04:43:56;;;;;;;;;;;;;;;24.55;42.73;102090.72;4943104;29;20392;-87
2021/07/23 04:46:21;;;;;;;;;;;;;;;24.80;41.99;102091.34;4942461;29;19918;-87
2021/07/23 04:48:46;;;;;;;;;;;;;;;24.86;41.78;102085.25;4942712;29;19941;-90
2021/07/23 04:51:11;;;;;;;;;;;;;;;24.46;43.00;102092.38;4943122;29;19970;-91
2021/07/23 04:53:37;;;;;;;;;;;;;;;24.75;42.22;102087.06;4943541;29;19926;-86
2021/07/23 04:56:05;;;;;;;;;;;;;;;24.79;42.32;102084.94;4943671;29;20001;-88
2021/07/23 04:58:31;;;;;;;;;;;;;;;24.58;42.30;102087.69;4943425;29;19918;-91
2021/07/23 05:00:56;;;;;;;;;;;;;;;25.04;41.54;102085.50;4940057;29;20438;-89
2021/07/23 05:03:34;;;;;;;;;;;;;;;24.59;42.76;102090.34;4959118;28;19922;-89
2021/07/23 05:06:00;;;;;;;;;;;;;;;24.49;43.20;102092.13;4962183;29;19919;-87
2021/07/23 05:08:27;;;;;;;;;;;;;;;24.77;42.70;102081.41;4944776;29;20284;-86
2021/07/23 05:10:52;;;;;;;;;;;;;;;24.83;42.42;102074.44;4944544;29;19923;-84
2021/07/23 05:13:19;;;;;;;;;;;;;;;24.91;42.10;102082.94;4945615;29;19919;-87
2021/07/23 05:15:46;;;;;;;;;;;;;;;24.99;41.99;102082.28;4931449;29;19930;-90
2021/07/23 05:18:12;;;;;;;;;;;;;;;25.26;41.32;102084.44;4964358;29;19919;-84
2021/07/23 05:20:39;;;;;;;;;;;;;;;25.29;41.73;102073.97;4966810;29;19918;-90
2021/07/23 05:23:04;;;;;;;;;;;;;;;24.73;43.22;102086.34;4932669;29;19923;-86
2021/07/23 05:25:31;;;;;;;;;;;;;;;25.05;42.50;102081.72;4945853;29;19929;-86
2021/07/23 05:27:56;;;;;;;;;;;;;;;25.45;41.70;102086.41;4962083;29;19918;-85
2021/07/23 05:30:21;;;;;;;;;;;;;;;25.10;42.42;102087.72;4947096;29;19973;-84
2021/07/23 05:32:47;;;;;;;;;;;;;;;25.49;42.04;102089.81;4947450;29;19915;-85
2021/07/23 05:35:12;;;;;;;;;;;;;;;25.10;42.48;102083.03;4947165;29;19930;-86
2021/07/23 05:37:45;;;;;;;;;;;;;;;25.34;42.02;102089.31;4932317;28;20372;-89
2021/07/23 05:40:17;;;;;;;;;;;;;;;25.08;42.25;102087.84;4965924;29;19938;-85
2021/07/23 05:42:43;;;;;;;;;;;;;;;25.28;41.82;102077.72;4945072;29;19922;-86
2021/07/23 05:45:09;;;;;;;;;;;;;;;25.46;41.89;102086.28;4944279;29;19915;-86
2021/07/23 05:47:34;;;;;;;;;;;;;;;25.31;42.09;102079.38;4944585;29;19918;-86
2021/07/23 05:50:08;;;;;;;;;;;;;;;25.82;41.54;102078.34;4950148;29;19958;-83
2021/07/23 05:52:33;;;;;;;;;;;;;;;25.82;41.11;102077.47;4949183;29;19941;-82
2021/07/23 05:54:58;;;;;;;;;;;;;;;25.64;41.61;102069.00;4929388;29;20372;-88
2021/07/23 05:57:23;;;;;;;;;;;;;;;25.26;43.01;102074.22;4962610;29;19918;-89
2021/07/23 05:59:49;;;;;;;;;;;;;;;25.93;41.63;102070.94;4961347;29;19924;-88
2021/07/23 06:02:14;;;;;;;;;;;;;;;25.71;42.17;102063.72;4945635;29;19924;-89
2021/07/23 06:04:40;;;;;;;;;;;;;;;26.06;41.24;102062.34;4945120;29;19925;-88
2021/07/23 06:07:06;;;;;;;;;;;;;;;26.10;41.05;102064.69;4944412;29;19933;-87
2021/07/23 06:09:33;;;;;;;;;;;;;;;26.26;39.96;102075.22;4944190;29;19925;-85
2021/07/23 06:11:59;;;;;;;;;;;;;;;26.30;39.93;102070.22;4962797;29;19941;-90
2021/07/23 06:14:24;;;;;;;;;;;;;;;26.24;40.16;102063.38;4933428;29;19927;-85
2021/07/23 06:16:49;;;;;;;;;;;;;;;26.28;39.62;102067.59;4950039;29;20273;-89
2021/07/23 06:19:18;;;;;;;;;;;;;;;26.14;40.49;102065.28;4950127;29;19919;-86
2021/07/23 06:21:53;;;;;;;;;;;;;;;26.42;39.31;102063.53;4957659;23;19926;-85
2021/07/23 06:24:28;;;;;;;;;;;;;;;26.12;40.13;102056.25;4969488;23;19926;-87
2021/07/23 06:26:53;;;;;;;;;;;;;;;26.12;40.31;102059.88;4963407;23;19950;-85
2021/07/23 06:29:44;;;;;;;;;;;;;;;26.13;40.01;102056.09;5038982;23;19929;-85
2021/07/23 06:32:40;;;;;;;;;;;;;;;26.44;39.31;102058.69;4954634;23;19943;-85
2021/07/23 06:35:47;;;;;;;;;;;;;;;26.21;40.38;102060.00;4938783;29;20046;-85
2021/07/23 06:38:12;;;;;;;;;;;;;;;26.49;39.57;102063.81;4941681;29;19919;-89
2021/07/23 06:40:38;;;;;;;;;;;;;;;26.41;39.61;102061.75;4935047;29;19919;-83
2021/07/23 06:43:03;;;;;;;;;;;;;;;26.75;38.59;102052.97;4939557;29;19925;-88
2021/07/23 06:45:29;;;;;;;;;;;;;;;26.77;38.58;102052.81;4938308;29;19925;-83
2021/07/23 06:47:54;;;;;;;;;;;;;;;25.78;40.82;102053.84;4931912;29;20300;-87
2021/07/23 06:50:19;;;;;;;;;;;;;;;26.72;38.70;102050.47;4937795;29;20295;-88
2021/07/23 06:52:44;;;;;;;;;;;;;;;27.10;38.09;102053.28;4930771;29;19965;-86
2021/07/23 06:55:10;;;;;;;;;;;;;;;26.94;38.34;102062.28;4934097;29;19929;-87
2021/07/23 06:57:35;;;;;;;;;;;;;;;26.85;38.43;102059.38;4929202;29;19951;-88
2021/07/23 07:00:00;;;;;;;;;;;;;;;26.66;39.07;102059.38;4938229;29;19919;-85
2021/07/23 07:02:25;;;;;;;;;;;;;;;26.85;38.93;102062.13;4934813;29;19966;-86
2021/07/23 07:04:51;;;;;;;;;;;;;;;27.07;38.21;102068.38;4931333;29;20017;-87
2021/07/23 07:07:17;;;;;;;;;;;;;;;26.75;38.63;102072.38;4936148;29;19966;-87
2021/07/23 07:09:43;;;;;;;;;;;;;;;26.69;38.31;102081.31;4929739;29;20399;-84
2021/07/23 07:12:09;;;;;;;;;;;;;;;26.64;38.50;102069.78;4935890;29;19919;-85
2021/07/23 07:14:34;;;;;;;;;;;;;;;27.01;37.82;102075.41;4928328;29;19919;-85
2021/07/23 07:16:59;;;;;;;;;;;;;;;27.08;37.89;102075.66;4944495;29;19919;-88
2021/07/23 07:19:25;;;;;;;;;;;;;;;26.90;38.37;102077.47;4944690;29;19929;-89
2021/07/23 07:21:57;;;;;;;;;;;;;;;27.21;37.53;102075.34;4926634;29;20014;-90
2021/07/23 07:24:26;;;;;;;;;;;;;;;26.77;37.90;102084.25;4922156;29;19965;-89
2021/07/23 07:27:17;;;;;;;;;;;;;;;26.73;38.08;102082.78;4941622;29;19927;-90
2021/07/23 07:29:50;;;;;;;;;;;;;;;26.89;38.36;102076.63;5037578;23;19991;-92
2021/07/23 07:32:18;;;;;;;;;;;;;;;27.10;37.38;102076.41;4904165;29;19920;-90
2021/07/23 07:34:44;;;;;;;;;;;;;;;27.16;37.44;102084.13;4910811;29;19955;-89
2021/07/23 07:37:09;;;;;;;;;;;;;;;27.04;37.81;102080.66;4897891;29;19948;-87
2021/07/23 07:39:37;;;;;;;;;;;;;;;26.86;37.92;102083.34;4896229;29;19975;-87
2021/07/23 07:42:03;;;;;;;;;;;;;;;27.00;37.51;102086.66;4880887;29;19927;-87
2021/07/23 07:44:28;;;;;;;;;;;;;;;26.78;38.00;102082.34;4893803;29;20296;-87
2021/07/23 07:46:53;;;;;;;;;;;;;;;27.49;36.83;102083.69;4894149;29;19976;-88
2021/07/23 07:49:21;;;;;;;;;;;;;;;27.27;37.42;102084.97;4880644;29;19919;-86
2021/07/23 07:51:46;;;;;;;;;;;;;;;27.04;37.49;102079.78;4894660;29;19927;-84
2021/07/23 07:54:12;;;;;;;;;;;;;;;27.17;36.94;102080.28;4893201;29;19923;-85
2021/07/23 07:56:38;;;;;;;;;;;;;;;25.96;39.22;102084.50;4878047;29;19955;-85
2021/07/23 07:59:03;;;;;;;;;;;;;;;26.82;37.63;102081.00;4878116;29;20011;-84
2021/07/23 08:01:28;;;;;;;;;;;;;;;26.97;37.29;102079.50;4877770;29;20409;-86
2021/07/23 08:03:53;;;;;;;;;;;;;;;27.38;36.71;102070.88;4878051;29;19919;-86
2021/07/23 08:06:27;;;;;;;;;;;;;;;27.66;36.17;102068.09;4880807;29;19920;-86
2021/07/23 08:08:54;;;;;;;;;;;;;;;27.68;36.39;102074.38;4879730;29;19967;-85
2021/07/23 08:11:19;;;;;;;;;;;;;;;27.55;36.51;102078.41;4880922;29;20010;-88
2021/07/23 08:13:45;;;;;;;;;;;;;;;26.89;37.56;102068.28;4881652;29;20401;-87
2021/07/23 08:16:12;;;;;;;;;;;;;;;27.54;36.30;102073.88;4880128;29;20010;-88
2021/07/23 08:18:38;;;;;;;;;;;;;;;27.29;36.45;102080.13;4881375;29;19961;-88
2021/07/23 08:21:03;;;;;;;;;;;;;;;27.26;36.53;102077.66;4881047;29;19963;-90
2021/07/23 08:23:29;;;;;;;;;;;;;;;27.14;36.65;102075.03;4880476;29;19927;-88
2021/07/23 08:25:54;;;;;;;;;;;;;;;26.86;37.16;102072.22;4878579;29;19920;-89
2021/07/23 08:28:19;;;;;;;;;;;;;;;26.20;38.99;102073.03;4875773;29;20439;-91
2021/07/23 08:30:45;;;;;;;;;;;;;;;27.47;36.54;102077.44;4898395;29;19928;-90
2021/07/23 08:33:11;;;;;;;;;;;;;;;27.09;37.16;102073.78;4899820;29;19926;-89
2021/07/23 08:35:37;;;;;;;;;;;;;;;26.81;37.13;102070.91;4904083;29;19923;-91
2021/07/23 08:38:04;;;;;;;;;;;;;;;26.85;37.23;102075.16;4905331;29;19930;-93
2021/07/23 08:40:30;;;;;;;;;;;;;;;26.22;38.50;102072.88;4905274;29;19927;-87
2021/07/23 08:42:56;;;;;;;;;;;;;;;26.31;38.47;102066.44;4903837;29;19920;-87
2021/07/23 08:45:22;;;;;;;;;;;;;;;26.48;38.45;102065.72;4902858;29;19927;-88
2021/07/23 08:47:47;;;;;;;;;;;;;;;26.48;38.07;102067.59;4903985;29;19920;-90
2021/07/23 08:50:12;;;;;;;;;;;;;;;27.42;36.68;102064.00;4902960;29;19926;-86
2021/07/23 08:52:45;;;;;;;;;;;;;;;27.69;36.09;102062.22;4888122;29;19942;-87
2021/07/23 08:55:14;;;;;;;;;;;;;;;26.02;38.70;102060.91;4904001;29;19915;-87
2021/07/23 08:57:41;;;;;;;;;;;;;;;27.50;36.47;102050.19;4898299;29;19923;-86
2021/07/23 09:00:08;;;;;;;;;;;;;;;27.61;36.06;102048.22;4901332;29;19975;-87
2021/07/23 09:02:48;;;;;;;;;;;;;;;27.92;35.70;102054.31;4901951;29;19947;-88
2021/07/23 09:05:16;;;;;;;;;;;;;;;25.87;39.61;102049.34;4901193;29;19966;-87
2021/07/23 09:07:45;;;;;;;;;;;;;;;27.09;37.19;102038.53;4902591;29;19938;-87
2021/07/23 09:10:12;;;;;;;;;;;;;;;27.13;37.35;102034.44;4901392;29;20270;-87
2021/07/23 09:12:40;;;;;;;;;;;;;;;28.42;35.07;102030.63;4901239;29;19919;-85
2021/07/23 09:15:15;;;;;;;;;;;;;;;28.02;35.49;102026.44;4900937;29;19962;-85
2021/07/23 09:17:41;;;;;;;;;;;;;;;27.06;36.92;102031.38;4900204;29;20385;-85
2021/07/23 09:20:06;;;;;;;;;;;;;;;26.79;38.31;102026.66;4901707;29;19930;-83
2021/07/23 09:22:42;;;;;;;;;;;;;;;27.91;36.23;102017.25;4901282;29;19923;-87
2021/07/23 09:25:07;;;;;;;;;;;;;;;29.18;33.88;102012.28;4897643;29;20377;-86
2021/07/23 09:27:34;;;;;;;;;;;;;;;28.56;35.04;102015.22;4900519;29;19967;-85
2021/07/23 09:30:01;;;;;;;;;;;;;;;27.77;36.19;102017.84;4899360;29;19927;-85
2021/07/23 09:32:27;;;;;;;;;;;;;;;27.06;37.33;102019.41;4894561;29;20354;-84
2021/07/23 09:34:53;;;;;;;;;;;;;;;28.02;36.32;102012.53;4899538;29;19923;-86
2021/07/23 09:37:18;;;;;;;;;;;;;;;26.95;37.12;102011.25;4900705;29;19926;-85
2021/07/23 09:39:54;;;;;;;;;;;;;;;28.45;35.28;102008.88;4899172;29;19924;-85
2021/07/23 09:42:22;;;;;;;;;;;;;;;27.01;37.44;102003.19;4884523;29;19958;-84
2021/07/23 09:44:59;;;;;;;;;;;;;;;28.31;35.56;102000.25;4900723;29;19920;-86
2021/07/23 09:47:24;;;;;;;;;;;;;;;27.70;36.14;102002.81;4900900;29;19935;-87
2021/07/23 09:49:50;;;;;;;;;;;;;;;28.03;36.12;102000.38;4899475;29;19972;-85
2021/07/23 09:52:15;;;;;;;;;;;;;;;27.05;37.73;102009.31;4899462;29;19971;-85
2021/07/23 09:54:40;;;;;;;;;;;;;;;28.52;35.47;101997.09;4901828;29;19959;-87
2021/07/23 09:57:07;;;;;;;;;;;;;;;26.66;38.13;102009.41;4900501;29;19971;-86
2021/07/23 09:59:36;;;;;;;;;;;;;;;26.20;39.73;102009.22;4904385;29;19931;-88
2021/07/23 10:02:02;;;;;;;;;;;;;;;27.35;37.14;102015.63;4901162;29;19920;-86
2021/07/23 10:04:36;;;;;;;;;;;;;;;27.30;37.12;102012.41;4901275;29;19923;-88
2021/07/23 10:07:09;;;;;;;;;;;;;;;27.98;36.62;102009.19;4901339;29;19919;-88
2021/07/23 10:09:36;;;;;;;;;;;;;;;27.90;36.79;102012.75;4902863;29;20010;-84
2021/07/23 10:12:01;;;;;;;;;;;;;;;27.69;36.88;102017.72;4906723;29;19919;-84
2021/07/23 10:14:29;;;;;;;;;;;;;;;26.95;38.06;102016.78;4899401;29;20140;-88
2021/07/23 10:16:54;;;;;;;;;;;;;;;27.12;37.43;102016.00;4895249;29;19923;-86
2021/07/23 10:19:23;;;;;;;;;;;;;;;28.26;35.33;102001.63;4883628;29;19967;-84
2021/07/23 10:21:53;;;;;;;;;;;;;;;28.12;35.80;101996.63;4883529;29;20050;-87
2021/07/23 10:24:18;;;;;;;;;;;;;;;27.70;36.75;102000.03;4884202;29;19927;-86
2021/07/23 10:26:44;;;;;;;;;;;;;;;28.40;35.55;101982.56;4884138;29;19920;-89
2021/07/23 10:29:10;;;;;;;;;;;;;;;27.72;36.45;101993.28;4884643;29;19919;-90
2021/07/23 10:31:38;;;;;;;;;;;;;;;28.71;34.30;101987.69;4898361;29;20034;-86
2021/07/23 10:34:04;;;;;;;;;;;;;;;28.43;34.99;101985.06;4899189;29;19948;-87
2021/07/23 10:36:30;;;;;;;;;;;;;;;28.68;33.93;101990.81;4899268;29;19919;-87
2021/07/23 10:39:17;;;;;;;;;;;;;;;29.09;33.42;101982.66;4900915;29;19926;-88
2021/07/23 10:41:45;;;;;;;;;;;;;;;28.05;34.91;101978.81;4902335;29;19930;-90
2021/07/23 10:44:12;;;;;;;;;;;;;;;28.51;34.81;101970.31;4900470;29;20328;-87
2021/07/23 10:46:46;;;;;;;;;;;;;;;30.04;31.97;101974.91;4897695;29;19919;-87
2021/07/23 10:49:31;;;;;;;;;;;;;;;29.65;32.88;101971.84;4900678;29;19966;-88
2021/07/23 10:52:00;;;;;;;;;;;;;;;29.09;33.20;101965.94;4906538;29;19910;-87
2021/07/23 10:54:26;;;;;;;;;;;;;;;27.98;34.56;101961.06;4919614;29;19975;-84
2021/07/23 10:57:00;;;;;;;;;;;;;;;29.60;33.01;101947.28;4916778;29;19920;-84
2021/07/23 10:59:38;;;;;;;;;;;;;;;30.51;31.40;101945.41;4901215;29;19971;-90
2021/07/23 11:02:03;;;;;;;;;;;;;;;29.94;31.83;101943.50;4902053;29;19944;-91
2021/07/23 11:04:29;;;;;;;;;;;;;;;30.35;31.15;101939.81;4900972;29;19920;-92
2021/07/23 11:06:58;;;;;;;;;;;;;;;27.46;35.99;101932.00;4899587;29;19927;-86
2021/07/23 11:09:23;;;;;;;;;;;;;;;29.65;32.76;101930.03;4898350;29;20365;-87
2021/07/23 11:11:49;;;;;;;;;;;;;;;30.27;31.86;101923.94;4898350;29;19920;-87
2021/07/23 11:14:15;;;;;;;;;;;;;;;29.43;32.07;101914.84;4898700;29;19919;-90
2021/07/23 11:16:40;;;;;;;;;;;;;;;29.52;31.98;101911.91;4898671;29;19920;-86
2021/07/23 11:19:05;;;;;;;;;;;;;;;29.61;32.17;101914.72;4898583;29;19919;-84
2021/07/23 11:21:35;;;;;;;;;;;;;;;27.57;35.51;101925.38;4899271;29;20277;-82
2021/07/23 11:24:01;;;;;;;;;;;;;;;29.64;32.36;101914.38;4897941;29;19919;-85
2021/07/23 11:26:28;;;;;;;;;;;;;;;27.04;37.11;101915.91;4898051;29;19943;-85
2021/07/23 11:28:56;;;;;;;;;;;;;;;27.87;35.78;101904.63;4895325;29;19941;-88
2021/07/23 11:31:50;;;;;;;;;;;;;;;27.56;36.89;101910.56;4890410;29;19927;-91
2021/07/23 11:34:21;;;;;;;;;;;;;;;27.05;37.85;101918.53;4895494;29;19920;-89
2021/07/23 11:36:46;;;;;;;;;;;;;;;27.86;36.70;101905.63;4894391;29;19916;-86
2021/07/23 11:39:12;;;;;;;;;;;;;;;28.36;35.64;101908.81;4898990;29;19924;-87
2021/07/23 11:41:56;;;;;;;;;;;;;;;27.96;36.66;101901.88;4882354;29;19919;-86
2021/07/23 11:44:21;;;;;;;;;;;;;;;27.03;38.41;101905.81;4880794;29;20023;-89
2021/07/23 11:46:50;;;;;;;;;;;;;;;26.88;38.30;101903.56;4878093;29;19920;-87
2021/07/23 11:49:22;;;;;;;;;;;;;;;27.41;37.20;101898.28;4899983;29;19920;-89
2021/07/23 11:51:47;;;;;;;;;;;;;;;28.07;35.86;101898.88;4899087;29;19920;-87
2021/07/23 11:54:19;;;;;;;;;;;;;;;29.21;33.76;101900.50;4902255;29;20337;-85
2021/07/23 11:56:45;;;;;;;;;;;;;;;28.26;34.89;101897.78;4902006;29;20563;-88
2021/07/23 11:59:12;;;;;;;;;;;;;;;26.97;37.45;101903.69;4892703;29;19991;-84
2021/07/23 12:01:38;;;;;;;;;;;;;;;27.84;35.63;101887.34;4884000;29;19920;-87
2021/07/23 12:04:04;;;;;;;;;;;;;;;28.54;34.81;101889.25;4884088;29;19927;-85
2021/07/23 12:06:30;;;;;;;;;;;;;;;29.61;33.25;101886.81;4900500;29;19946;-87
2021/07/23 12:08:57;;;;;;;;;;;;;;;30.08;31.59;101879.69;4898770;29;20361;-87
2021/07/23 12:11:23;;;;;;;;;;;;;;;30.61;30.97;101868.91;4884589;29;20006;-88
2021/07/23 12:13:49;;;;;;;;;;;;;;;30.01;31.36;101872.00;4887407;29;20015;-87
2021/07/23 12:16:16;;;;;;;;;;;;;;;29.81;31.78;101859.47;4885603;29;19919;-86
2021/07/23 12:18:53;;;;;;;;;;;;;;;29.37;32.32;101863.44;4884860;29;20018;-88
2021/07/23 12:21:21;;;;;;;;;;;;;;;29.37;32.90;101857.88;4886322;29;19919;-85
2021/07/23 12:23:55;;;;;;;;;;;;;;;28.73;33.91;101850.03;4899720;29;20123;-84
2021/07/23 12:26:30;;;;;;;;;;;;;;;28.40;34.07;101843.41;4884832;29;19919;-85
2021/07/23 12:28:56;;;;;;;;;;;;;;;27.00;36.40;101840.34;4884967;29;19920;-89
2021/07/23 12:31:21;;;;;;;;;;;;;;;28.72;33.46;101842.72;4884418;29;20022;-89
2021/07/23 12:33:59;;;;;;;;;;;;;;;27.93;34.33;101837.22;4902013;29;19947;-89
2021/07/23 12:36:24;;;;;;;;;;;;;;;30.20;31.26;101826.09;4916472;29;20369;-89